createdAt,value
2019-02-21T00:00:07.256Z,20.20
2019-02-21T00:01:07.272Z,21.00
2019-02-21T00:02:07.292Z,22.80
2019-02-21T00:03:07.310Z,19.40
2019-02-21T00:04:07.318Z,22.50
2019-02-21T00:05:07.341Z,21.20
2019-02-21T00:06:07.351Z,20.30
2019-02-21T00:07:07.373Z,22.30
2019-02-21T00:08:07.382Z,23.40
2019-02-21T00:09:07.408Z,19.70
2019-02-21T00:10:07.427Z,19.80
2019-02-21T00:11:07.458Z,17.00
2019-02-21T00:12:07.455Z,16.50
2019-02-21T00:13:07.465Z,21.90
2019-02-21T00:14:07.487Z,19.20
2019-02-21T00:15:07.498Z,17.40
2019-02-21T00:16:07.518Z,24.00
2019-02-21T00:17:07.531Z,17.60
2019-02-21T00:18:07.553Z,21.90
2019-02-21T00:19:07.561Z,22.00
2019-02-21T00:20:07.577Z,21.20
2019-02-21T00:21:07.597Z,19.00
2019-02-21T00:22:07.613Z,20.60
2019-02-21T00:23:07.641Z,23.00
2019-02-21T00:24:07.645Z,19.80
2019-02-21T00:25:07.665Z,22.40
2019-02-21T00:26:07.684Z,17.90
2019-02-21T00:27:07.691Z,21.40
2019-02-21T00:28:07.707Z,22.00
2019-02-21T00:29:07.727Z,19.10
2019-02-21T00:30:07.744Z,19.40
2019-02-21T00:31:07.757Z,22.70
2019-02-21T00:32:07.774Z,22.10
2019-02-21T00:33:07.788Z,21.90
2019-02-21T00:34:07.813Z,18.00
2019-02-21T00:35:07.829Z,21.40
2019-02-21T00:36:07.836Z,21.90
2019-02-21T00:37:07.859Z,17.40
2019-02-21T00:38:07.877Z,22.20
2019-02-21T00:39:07.887Z,19.50
2019-02-21T00:40:07.904Z,20.40
2019-02-21T00:41:07.925Z,18.30
2019-02-21T00:42:07.952Z,17.10
2019-02-21T00:43:07.948Z,16.90
2019-02-21T00:44:07.964Z,17.40
2019-02-21T00:45:07.987Z,21.20
2019-02-21T00:46:08.006Z,20.80
2019-02-21T00:47:08.012Z,17.50
2019-02-21T00:48:08.028Z,18.10
2019-02-21T00:49:08.044Z,18.40
2019-02-21T00:50:08.064Z,18.10
2019-02-21T00:51:08.096Z,19.80
2019-02-21T00:52:08.093Z,18.00
2019-02-21T00:53:08.115Z,17.40
2019-02-21T00:54:08.128Z,21.10
2019-02-21T00:55:08.145Z,21.50
2019-02-21T00:56:08.160Z,21.00
2019-02-21T00:57:08.176Z,19.30
2019-02-21T00:58:08.207Z,22.40
2019-02-21T00:59:08.206Z,18.50
2019-02-21T01:00:08.223Z,18.70
2019-02-21T01:01:08.240Z,21.10
2019-02-21T01:02:08.261Z,21.20
2019-02-21T01:03:08.269Z,19.60
2019-02-21T01:04:08.293Z,19.20
2019-02-21T01:05:08.308Z,23.70
2019-02-21T01:06:08.317Z,18.40
2019-02-21T01:07:08.332Z,21.50
2019-02-21T01:08:08.353Z,21.70
2019-02-21T01:09:08.373Z,19.40
2019-02-21T01:10:08.380Z,19.80
2019-02-21T01:11:08.400Z,20.40
2019-02-21T01:12:08.419Z,20.40
2019-02-21T01:13:08.430Z,21.90
2019-02-21T01:14:08.452Z,17.30
2019-02-21T01:15:08.469Z,21.60
2019-02-21T01:16:08.477Z,21.10
2019-02-21T01:17:08.493Z,22.60
2019-02-21T01:18:08.509Z,21.90
2019-02-21T01:19:08.526Z,22.40
2019-02-21T01:20:08.545Z,20.10
2019-02-21T01:21:08.555Z,24.10
2019-02-21T01:22:08.571Z,20.30
2019-02-21T01:23:08.590Z,19.60
2019-02-21T01:24:08.602Z,22.50
2019-02-21T01:25:08.621Z,22.20
2019-02-21T01:26:08.634Z,22.00
2019-02-21T01:27:08.652Z,21.60
2019-02-21T01:28:08.672Z,20.50
2019-02-21T01:29:08.683Z,18.90
2019-02-21T01:30:08.700Z,24.00
2019-02-21T01:31:08.717Z,21.70
2019-02-21T01:32:08.736Z,20.50
2019-02-21T01:33:08.769Z,24.00
2019-02-21T01:34:08.764Z,21.90
2019-02-21T01:35:08.776Z,22.40
2019-02-21T01:36:08.795Z,21.50
2019-02-21T01:37:08.808Z,23.00
2019-02-21T01:38:08.823Z,23.40
2019-02-21T01:39:08.847Z,22.80
2019-02-21T01:40:08.857Z,22.90
2019-02-21T01:41:08.873Z,20.30
2019-02-21T01:42:08.893Z,23.50
2019-02-21T01:43:08.902Z,22.60
2019-02-21T01:44:08.920Z,21.10
2019-02-21T01:45:08.940Z,25.70
2019-02-21T01:46:08.953Z,23.70
2019-02-21T01:47:08.973Z,25.50
2019-02-21T01:48:08.984Z,24.60
2019-02-21T01:49:09.004Z,21.80
2019-02-21T01:50:09.015Z,26.30
2019-02-21T01:51:09.037Z,24.50
2019-02-21T01:52:09.046Z,26.40
2019-02-21T01:53:09.063Z,24.80
2019-02-21T01:54:09.079Z,24.90
2019-02-21T01:55:09.094Z,22.30
2019-02-21T01:56:09.116Z,22.10
2019-02-21T01:57:09.126Z,21.80
2019-02-21T01:58:09.139Z,25.20
2019-02-21T01:59:09.154Z,26.60
2019-02-21T02:00:09.174Z,28.30
2019-02-21T02:01:09.253Z,23.50
2019-02-21T02:02:09.203Z,22.10
2019-02-21T02:03:09.220Z,26.80
2019-02-21T02:04:09.236Z,23.90
2019-02-21T02:05:09.252Z,24.90
2019-02-21T02:06:09.275Z,26.20
2019-02-21T02:07:09.287Z,22.60
2019-02-21T02:08:09.297Z,26.40
2019-02-21T02:09:09.314Z,27.00
2019-02-21T02:10:09.337Z,26.90
2019-02-21T02:11:09.358Z,27.50
2019-02-21T02:12:09.362Z,26.40
2019-02-21T02:13:21.526Z,27.40
2019-02-21T02:14:09.392Z,26.70
2019-02-21T02:15:09.413Z,23.90
2019-02-21T02:16:09.423Z,27.20
2019-02-21T02:17:09.444Z,23.80
2019-02-21T02:18:09.457Z,24.40
2019-02-21T02:19:09.475Z,26.10
2019-02-21T02:20:09.495Z,22.90
2019-02-21T02:21:09.502Z,24.90
2019-02-21T02:22:09.521Z,26.20
2019-02-21T02:23:09.536Z,26.00
2019-02-21T02:24:09.552Z,23.40
2019-02-21T02:25:09.566Z,25.80
2019-02-21T02:26:09.611Z,26.60
2019-02-21T02:27:09.598Z,34.10
2019-02-21T02:28:09.618Z,26.50
2019-02-21T02:29:09.639Z,25.60
2019-02-21T02:30:09.647Z,27.90
2019-02-21T02:31:22.008Z,22.90
2019-02-21T02:32:09.959Z,26.80
2019-02-21T02:33:09.696Z,24.90
2019-02-21T02:34:09.712Z,27.10
2019-02-21T02:35:09.726Z,24.60
2019-02-21T02:36:09.743Z,24.40
2019-02-21T02:37:09.795Z,24.20
2019-02-21T02:38:09.780Z,28.00
2019-02-21T02:39:09.793Z,24.30
2019-02-21T02:40:09.821Z,25.30
2019-02-21T02:41:09.820Z,26.50
2019-02-21T02:42:09.836Z,25.60
2019-02-21T02:43:09.857Z,23.00
2019-02-21T02:44:09.875Z,27.80
2019-02-21T02:45:09.884Z,27.00
2019-02-21T02:46:09.914Z,26.80
2019-02-21T02:47:09.917Z,26.20
2019-02-21T02:48:10.054Z,24.80
2019-02-21T02:49:09.951Z,24.20
2019-02-21T02:50:09.966Z,23.50
2019-02-21T02:51:09.980Z,26.40
2019-02-21T02:52:09.997Z,24.90
2019-02-21T02:53:10.012Z,26.90
2019-02-21T02:54:10.028Z,24.50
2019-02-21T02:55:10.046Z,27.10
2019-02-21T02:56:10.061Z,29.40
2019-02-21T02:57:10.080Z,26.30
2019-02-21T02:58:10.092Z,25.10
2019-02-21T02:59:10.107Z,23.70
2019-02-21T03:00:10.122Z,26.00
2019-02-21T03:01:10.140Z,28.40
2019-02-21T03:02:10.154Z,25.00
2019-02-21T03:03:10.176Z,21.80
2019-02-21T03:04:10.185Z,29.20
2019-02-21T03:05:10.201Z,23.70
2019-02-21T03:06:10.218Z,29.90
2019-02-21T03:07:10.240Z,22.30
2019-02-21T03:08:10.278Z,25.80
2019-02-21T03:09:10.265Z,27.30
2019-02-21T03:10:10.280Z,28.60
2019-02-21T03:11:10.304Z,26.20
2019-02-21T03:12:10.313Z,32.00
2019-02-21T03:13:10.338Z,28.20
2019-02-21T03:14:10.347Z,30.40
2019-02-21T03:15:10.359Z,26.20
2019-02-21T03:16:10.378Z,26.00
2019-02-21T03:17:10.392Z,27.30
2019-02-21T03:18:10.406Z,26.10
2019-02-21T03:19:10.423Z,26.10
2019-02-21T03:20:10.534Z,31.60
2019-02-21T03:21:10.458Z,26.20
2019-02-21T03:22:10.473Z,28.20
2019-02-21T03:23:10.486Z,28.10
2019-02-21T03:24:10.499Z,26.40
2019-02-21T03:25:10.516Z,27.40
2019-02-21T03:26:10.548Z,26.60
2019-02-21T03:27:10.553Z,29.90
2019-02-21T03:28:10.562Z,29.50
2019-02-21T03:29:10.578Z,27.60
2019-02-21T03:30:12.452Z,27.50
2019-02-21T03:31:10.613Z,30.50
2019-02-21T03:32:10.636Z,31.90
2019-02-21T03:33:10.644Z,31.30
2019-02-21T03:34:10.661Z,30.10
2019-02-21T03:35:10.791Z,28.00
2019-02-21T03:36:10.699Z,28.10
2019-02-21T03:37:10.710Z,27.60
2019-02-21T03:38:10.729Z,30.10
2019-02-21T03:39:10.744Z,28.60
2019-02-21T03:40:10.806Z,32.40
2019-02-21T03:41:10.770Z,32.60
2019-02-21T03:42:10.782Z,30.40
2019-02-21T03:43:10.799Z,28.40
2019-02-21T03:44:10.822Z,29.30
2019-02-21T03:45:10.835Z,31.50
2019-02-21T03:46:10.854Z,28.80
2019-02-21T03:47:10.861Z,31.50
2019-02-21T03:48:10.878Z,31.80
2019-02-21T03:49:10.891Z,30.50
2019-02-21T03:50:10.908Z,31.80
2019-02-21T03:51:10.923Z,30.60
2019-02-21T03:52:10.939Z,31.10
2019-02-21T03:53:10.956Z,31.70
2019-02-21T03:54:10.968Z,32.40
2019-02-21T03:55:10.994Z,34.90
2019-02-21T03:56:11.004Z,29.00
2019-02-21T03:57:11.023Z,32.20
2019-02-21T03:58:11.030Z,33.60
2019-02-21T03:59:11.048Z,31.80
2019-02-21T04:00:11.068Z,33.40
2019-02-21T04:01:11.079Z,32.40
2019-02-21T04:02:11.102Z,33.70
2019-02-21T04:03:11.107Z,26.30
2019-02-21T04:04:11.121Z,36.50
2019-02-21T04:05:11.144Z,31.40
2019-02-21T04:06:11.156Z,31.60
2019-02-21T04:07:11.171Z,34.00
2019-02-21T04:08:11.187Z,32.50
2019-02-21T04:09:11.205Z,34.30
2019-02-21T04:10:11.223Z,29.30
2019-02-21T04:11:11.231Z,37.60
2019-02-21T04:12:11.259Z,37.80
2019-02-21T04:13:11.262Z,34.80
2019-02-21T04:14:11.278Z,35.20
2019-02-21T04:15:11.294Z,30.80
2019-02-21T04:16:11.307Z,32.50
2019-02-21T04:17:11.329Z,36.50
2019-02-21T04:18:11.339Z,35.50
2019-02-21T04:19:11.356Z,37.10
2019-02-21T04:20:11.371Z,32.60
2019-02-21T04:21:11.397Z,33.90
2019-02-21T04:22:11.403Z,39.00
2019-02-21T04:23:11.417Z,35.40
2019-02-21T04:24:11.436Z,33.60
2019-02-21T04:25:11.447Z,34.60
2019-02-21T04:26:11.465Z,33.90
2019-02-21T04:27:11.478Z,30.30
2019-02-21T04:28:11.495Z,37.30
2019-02-21T04:29:11.527Z,35.90
2019-02-21T04:30:11.527Z,32.70
2019-02-21T04:31:11.539Z,32.70
2019-02-21T04:32:16.947Z,33.10
2019-02-21T04:33:11.570Z,33.40
2019-02-21T04:34:11.589Z,33.80
2019-02-21T04:35:11.606Z,36.70
2019-02-21T04:36:11.623Z,36.60
2019-02-21T04:37:11.637Z,33.70
2019-02-21T04:38:11.649Z,34.70
2019-02-21T04:39:11.665Z,34.10
2019-02-21T04:40:11.678Z,34.70
2019-02-21T04:41:11.700Z,36.80
2019-02-21T04:42:11.711Z,31.50
2019-02-21T04:43:11.731Z,33.40
2019-02-21T04:44:11.741Z,34.90
2019-02-21T04:45:11.758Z,35.20
2019-02-21T04:46:11.774Z,33.40
2019-02-21T04:47:11.787Z,35.80
2019-02-21T04:48:11.803Z,38.30
2019-02-21T04:49:11.819Z,40.30
2019-02-21T04:50:11.831Z,34.10
2019-02-21T04:51:11.846Z,35.20
2019-02-21T04:52:11.865Z,29.10
2019-02-21T04:53:11.879Z,33.50
2019-02-21T04:54:11.905Z,37.30
2019-02-21T04:55:11.907Z,36.60
2019-02-21T04:56:11.923Z,37.50
2019-02-21T04:57:11.944Z,36.90
2019-02-21T04:58:11.953Z,34.00
2019-02-21T04:59:11.992Z,36.20
2019-02-21T05:00:11.986Z,35.90
2019-02-21T05:01:11.999Z,32.60
2019-02-21T05:02:12.016Z,32.70
2019-02-21T05:03:12.030Z,40.00
2019-02-21T05:04:12.054Z,34.70
2019-02-21T05:05:12.061Z,35.50
2019-02-21T05:06:12.081Z,35.20
2019-02-21T05:07:12.093Z,31.20
2019-02-21T05:08:12.113Z,38.20
2019-02-21T05:09:12.137Z,38.80
2019-02-21T05:10:12.144Z,37.70
2019-02-21T05:11:12.158Z,40.40
2019-02-21T05:12:12.170Z,34.80
2019-02-21T05:13:12.186Z,34.10
2019-02-21T05:14:12.199Z,38.80
2019-02-21T05:15:14.036Z,37.80
2019-02-21T05:16:12.338Z,40.30
2019-02-21T05:17:12.247Z,36.10
2019-02-21T05:18:12.274Z,35.90
2019-02-21T05:19:12.281Z,36.40
2019-02-21T05:20:12.293Z,35.10
2019-02-21T05:21:12.309Z,38.00
2019-02-21T05:22:12.330Z,31.90
2019-02-21T05:23:12.335Z,38.40
2019-02-21T05:24:12.353Z,37.60
2019-02-21T05:25:12.370Z,37.20
2019-02-21T05:26:12.382Z,38.00
2019-02-21T05:27:12.401Z,37.30
2019-02-21T05:28:12.412Z,35.60
2019-02-21T05:29:12.428Z,34.10
2019-02-21T05:30:12.443Z,39.40
2019-02-21T05:31:12.460Z,44.00
2019-02-21T05:32:12.481Z,37.40
2019-02-21T05:33:12.488Z,37.70
2019-02-21T05:34:12.505Z,37.70
2019-02-21T05:35:12.521Z,38.40
2019-02-21T05:36:12.536Z,35.70
2019-02-21T05:37:12.550Z,38.70
2019-02-21T05:38:12.572Z,41.90
2019-02-21T05:39:12.584Z,40.10
2019-02-21T05:40:12.599Z,44.90
2019-02-21T05:41:12.734Z,48.80
2019-02-21T05:42:12.626Z,35.90
2019-02-21T05:43:12.641Z,39.60
2019-02-21T05:44:12.659Z,40.60
2019-02-21T05:45:12.674Z,42.00
2019-02-21T05:46:12.695Z,38.00
2019-02-21T05:47:12.704Z,39.80
2019-02-21T05:48:12.717Z,37.50
2019-02-21T05:49:12.740Z,35.20
2019-02-21T05:50:12.749Z,37.60
2019-02-21T05:51:12.762Z,39.90
2019-02-21T05:52:12.796Z,35.90
2019-02-21T05:53:12.801Z,39.10
2019-02-21T05:54:12.967Z,38.60
2019-02-21T05:55:12.828Z,36.10
2019-02-21T05:56:12.839Z,36.20
2019-02-21T05:57:12.862Z,37.00
2019-02-21T05:58:12.983Z,36.10
2019-02-21T05:59:12.885Z,35.90
2019-02-21T06:00:12.969Z,43.60
2019-02-21T06:01:12.918Z,37.80
2019-02-21T06:02:12.946Z,47.50
2019-02-21T06:03:12.947Z,36.40
2019-02-21T06:04:12.962Z,35.60
2019-02-21T06:05:12.975Z,38.50
2019-02-21T06:06:13.021Z,39.90
2019-02-21T06:07:13.009Z,37.40
2019-02-21T06:08:13.023Z,39.10
2019-02-21T06:09:13.044Z,41.80
2019-02-21T06:10:13.053Z,45.40
2019-02-21T06:11:13.068Z,39.40
2019-02-21T06:12:13.083Z,41.10
2019-02-21T06:13:13.108Z,36.40
2019-02-21T06:14:13.121Z,36.50
2019-02-21T06:15:13.127Z,37.20
2019-02-21T06:16:13.145Z,37.80
2019-02-21T06:17:13.161Z,38.70
2019-02-21T06:18:13.173Z,39.40
2019-02-21T06:19:13.190Z,40.20
2019-02-21T06:20:13.206Z,35.50
2019-02-21T06:21:13.219Z,39.90
2019-02-21T06:22:13.243Z,42.30
2019-02-21T06:23:13.254Z,37.40
2019-02-21T06:24:13.266Z,39.40
2019-02-21T06:25:13.281Z,37.30
2019-02-21T06:26:13.309Z,37.10
2019-02-21T06:27:13.312Z,39.30
2019-02-21T06:28:13.327Z,38.20
2019-02-21T06:29:13.343Z,42.60
2019-02-21T06:30:13.357Z,35.40
2019-02-21T06:31:13.373Z,38.00
2019-02-21T06:32:14.542Z,39.50
2019-02-21T06:33:13.404Z,38.40
2019-02-21T06:34:13.417Z,40.70
2019-02-21T06:35:13.438Z,39.00
2019-02-21T06:36:13.450Z,38.30
2019-02-21T06:37:13.464Z,39.00
2019-02-21T06:38:13.478Z,35.30
2019-02-21T06:39:13.497Z,38.40
2019-02-21T06:40:13.508Z,37.00
2019-02-21T06:41:13.524Z,42.90
2019-02-21T06:42:13.556Z,33.90
2019-02-21T06:43:13.555Z,39.40
2019-02-21T06:44:13.575Z,43.80
2019-02-21T06:45:13.586Z,42.30
2019-02-21T06:46:13.956Z,36.60
2019-02-21T06:47:13.619Z,38.50
2019-02-21T06:48:13.631Z,44.00
2019-02-21T06:49:13.646Z,36.90
2019-02-21T06:50:14.495Z,38.40
2019-02-21T06:51:13.678Z,38.60
2019-02-21T06:52:15.577Z,36.70
2019-02-21T06:53:13.709Z,40.40
2019-02-21T06:54:13.722Z,35.00
2019-02-21T06:55:13.743Z,37.40
2019-02-21T06:56:13.754Z,35.30
2019-02-21T06:57:13.777Z,42.40
2019-02-21T06:58:13.785Z,35.10
2019-02-21T06:59:13.803Z,36.00
2019-02-21T07:00:13.820Z,38.80
2019-02-21T07:01:13.831Z,40.90
2019-02-21T07:02:13.853Z,38.20
2019-02-21T07:03:16.072Z,38.20
2019-02-21T07:04:13.877Z,35.70
2019-02-21T07:05:13.890Z,35.20
2019-02-21T07:06:13.912Z,37.60
2019-02-21T07:07:13.927Z,34.30
2019-02-21T07:08:13.940Z,38.50
2019-02-21T07:09:13.952Z,40.00
2019-02-21T07:10:13.971Z,41.30
2019-02-21T07:11:13.991Z,39.30
2019-02-21T07:12:13.997Z,41.90
2019-02-21T07:13:25.699Z,37.80
2019-02-21T07:14:14.038Z,36.10
2019-02-21T07:15:15.126Z,35.20
2019-02-21T07:16:14.063Z,38.70
2019-02-21T07:17:14.074Z,37.10
2019-02-21T07:18:14.118Z,38.80
2019-02-21T07:19:14.107Z,40.50
2019-02-21T07:20:14.119Z,39.50
2019-02-21T07:21:14.147Z,41.40
2019-02-21T07:22:17.875Z,36.10
2019-02-21T07:23:14.171Z,39.00
2019-02-21T07:24:14.193Z,37.90
2019-02-21T07:25:14.198Z,36.80
2019-02-21T07:26:14.214Z,41.70
2019-02-21T07:27:14.229Z,35.10
2019-02-21T07:28:15.937Z,38.10
2019-02-21T07:29:14.260Z,38.70
2019-02-21T07:30:20.177Z,34.40
2019-02-21T07:31:14.290Z,40.20
2019-02-21T07:32:14.306Z,32.80
2019-02-21T07:33:14.322Z,35.00
2019-02-21T07:34:14.338Z,35.60
2019-02-21T07:35:14.353Z,33.40
2019-02-21T07:36:14.451Z,40.20
2019-02-21T07:37:18.486Z,32.50
2019-02-21T07:38:17.018Z,34.30
2019-02-21T07:39:19.810Z,33.00
2019-02-21T07:40:20.120Z,39.50
2019-02-21T07:41:14.565Z,39.00
2019-02-21T07:42:14.462Z,32.50
2019-02-21T07:43:14.476Z,35.30
2019-02-21T07:44:14.495Z,34.10
2019-02-21T07:45:14.672Z,36.20
2019-02-21T07:46:14.523Z,33.50
2019-02-21T07:47:14.539Z,34.10
2019-02-21T07:48:14.562Z,39.20
2019-02-21T07:49:14.572Z,32.80
2019-02-21T07:50:14.594Z,32.00
2019-02-21T07:51:14.603Z,33.50
2019-02-21T07:52:14.617Z,34.10
2019-02-21T07:53:14.635Z,34.10
2019-02-21T07:54:14.653Z,36.30
2019-02-21T07:55:14.664Z,33.90
2019-02-21T07:56:14.688Z,35.00
2019-02-21T07:57:14.697Z,34.90
2019-02-21T07:58:14.715Z,33.10
2019-02-21T07:59:14.730Z,34.60
2019-02-21T08:00:14.747Z,35.60
2019-02-21T08:01:17.306Z,32.30
2019-02-21T08:02:14.777Z,36.70
2019-02-21T08:03:14.794Z,32.30
2019-02-21T08:04:14.816Z,37.20
2019-02-21T08:05:14.825Z,33.50
2019-02-21T08:06:14.841Z,31.90
2019-02-21T08:07:14.860Z,33.20
2019-02-21T08:08:14.880Z,31.90
2019-02-21T08:09:14.892Z,29.60
2019-02-21T08:10:14.909Z,33.10
2019-02-21T08:11:14.922Z,32.80
2019-02-21T08:12:14.941Z,31.40
2019-02-21T08:13:14.962Z,30.80
2019-02-21T08:14:16.214Z,34.30
2019-02-21T08:15:14.995Z,39.40
2019-02-21T08:16:15.109Z,33.40
2019-02-21T08:17:16.277Z,33.20
2019-02-21T08:18:15.056Z,34.60
2019-02-21T08:19:15.609Z,35.30
2019-02-21T08:20:15.070Z,37.50
2019-02-21T08:21:15.090Z,33.00
2019-02-21T08:22:15.106Z,33.10
2019-02-21T08:23:15.123Z,32.80
2019-02-21T08:24:15.150Z,32.60
2019-02-21T08:25:15.161Z,33.30
2019-02-21T08:26:15.195Z,35.30
2019-02-21T08:27:15.186Z,31.60
2019-02-21T08:28:15.203Z,34.60
2019-02-21T08:29:15.220Z,34.10
2019-02-21T08:30:15.235Z,35.60
2019-02-21T08:31:15.264Z,35.60
2019-02-21T08:32:15.272Z,34.40
2019-02-21T08:33:15.284Z,39.50
2019-02-21T08:34:15.306Z,33.40
2019-02-21T08:35:15.327Z,30.80
2019-02-21T08:36:15.332Z,37.30
2019-02-21T08:37:15.359Z,32.90
2019-02-21T08:38:15.371Z,33.50
2019-02-21T08:39:15.786Z,36.00
2019-02-21T08:40:15.402Z,32.20
2019-02-21T08:41:15.419Z,36.10
2019-02-21T08:42:15.435Z,33.90
2019-02-21T08:43:15.449Z,38.60
2019-02-21T08:44:15.466Z,34.30
2019-02-21T08:45:17.729Z,36.10
2019-02-21T08:46:18.220Z,39.00
2019-02-21T08:47:15.517Z,37.10
2019-02-21T08:48:15.532Z,33.30
2019-02-21T08:49:15.575Z,33.80
2019-02-21T08:50:15.698Z,42.90
2019-02-21T08:51:18.142Z,39.60
2019-02-21T08:52:15.663Z,42.30
2019-02-21T08:53:15.618Z,39.60
2019-02-21T08:54:15.638Z,45.90
2019-02-21T08:55:15.653Z,40.50
2019-02-21T08:56:15.671Z,36.00
2019-02-21T08:57:18.331Z,46.90
2019-02-21T08:58:15.704Z,38.10
2019-02-21T08:59:15.779Z,38.50
2019-02-21T09:00:15.736Z,34.40
2019-02-21T09:01:15.759Z,41.60
2019-02-21T09:02:15.770Z,42.10
2019-02-21T09:03:17.985Z,40.30
2019-02-21T09:04:26.693Z,34.40
2019-02-21T09:05:15.826Z,37.50
2019-02-21T09:06:15.846Z,37.60
2019-02-21T09:07:15.853Z,35.10
2019-02-21T09:08:16.755Z,40.40
2019-02-21T09:09:15.888Z,34.10
2019-02-21T09:10:15.910Z,39.20
2019-02-21T09:11:15.920Z,39.20
2019-02-21T09:12:15.939Z,36.50
2019-02-21T09:13:15.956Z,40.40
2019-02-21T09:14:15.974Z,41.60
2019-02-21T09:15:16.020Z,97.80
2019-02-21T09:16:17.837Z,40.70
2019-02-21T09:17:16.029Z,46.90
2019-02-21T09:18:16.040Z,36.70
2019-02-21T09:19:16.061Z,39.80
2019-02-21T09:20:16.081Z,38.90
2019-02-21T09:21:16.091Z,40.30
2019-02-21T09:22:16.111Z,42.30
2019-02-21T09:23:16.127Z,35.30
2019-02-21T09:24:35.294Z,36.20
2019-02-21T09:25:16.159Z,37.60
2019-02-21T09:26:16.179Z,39.00
2019-02-21T09:27:16.207Z,34.40
2019-02-21T09:28:16.512Z,38.60
2019-02-21T09:29:16.230Z,35.60
2019-02-21T09:30:16.249Z,36.10
2019-02-21T09:31:16.263Z,36.60
2019-02-21T09:32:16.282Z,41.40
2019-02-21T09:33:17.749Z,35.00
2019-02-21T09:34:21.074Z,36.00
2019-02-21T09:35:16.336Z,42.40
2019-02-21T09:36:16.356Z,42.70
2019-02-21T09:37:16.368Z,41.70
2019-02-21T09:38:16.383Z,40.80
2019-02-21T09:39:16.402Z,34.30
2019-02-21T09:40:16.421Z,37.90
2019-02-21T09:41:16.434Z,38.50
2019-02-21T09:42:16.461Z,42.00
2019-02-21T09:43:16.476Z,41.00
2019-02-21T09:44:18.194Z,42.90
2019-02-21T09:45:16.540Z,36.90
2019-02-21T09:46:16.526Z,41.60
2019-02-21T09:47:16.541Z,35.90
2019-02-21T09:48:16.561Z,39.90
2019-02-21T09:49:16.573Z,40.50
2019-02-21T09:50:16.592Z,43.10
2019-02-21T09:51:18.343Z,43.00
2019-02-21T09:52:16.626Z,38.50
2019-02-21T09:53:16.641Z,41.80
2019-02-21T09:54:19.013Z,39.00
2019-02-21T09:55:16.676Z,42.10
2019-02-21T09:56:16.692Z,41.10
2019-02-21T09:57:16.709Z,44.50
2019-02-21T09:58:16.740Z,44.70
2019-02-21T09:59:16.774Z,150.70
2019-02-21T10:00:16.818Z,105.80
2019-02-21T10:01:16.779Z,41.40
2019-02-21T10:02:16.798Z,41.50
2019-02-21T10:03:16.836Z,44.00
2019-02-21T10:04:16.835Z,97.10
2019-02-21T10:05:16.850Z,39.60
2019-02-21T10:06:16.869Z,40.40
2019-02-21T10:07:16.884Z,41.40
2019-02-21T10:08:16.929Z,43.40
2019-02-21T10:09:16.920Z,43.00
2019-02-21T10:10:16.937Z,43.50
2019-02-21T10:11:16.956Z,50.20
2019-02-21T10:12:16.983Z,79.00
2019-02-21T10:13:16.999Z,50.00
2019-02-21T10:14:17.022Z,92.90
2019-02-21T10:15:17.059Z,87.50
2019-02-21T10:16:17.046Z,49.10
2019-02-21T10:17:17.064Z,59.30
2019-02-21T10:18:17.091Z,42.90
2019-02-21T10:19:17.099Z,45.10
2019-02-21T10:20:17.117Z,45.00
2019-02-21T10:21:17.132Z,41.50
2019-02-21T10:22:17.152Z,45.80
2019-02-21T10:23:17.170Z,43.90
2019-02-21T10:24:17.188Z,45.40
2019-02-21T10:25:17.209Z,44.70
2019-02-21T10:26:17.225Z,47.80
2019-02-21T10:27:17.240Z,46.60
2019-02-21T10:28:17.261Z,44.20
2019-02-21T10:29:17.283Z,44.90
2019-02-21T10:30:17.329Z,48.40
2019-02-21T10:31:17.313Z,45.70
2019-02-21T10:32:17.330Z,44.20
2019-02-21T10:33:17.352Z,49.10
2019-02-21T10:34:17.375Z,47.30
2019-02-21T10:35:17.386Z,41.70
2019-02-21T10:36:17.402Z,45.90
2019-02-21T10:37:17.423Z,43.80
2019-02-21T10:38:17.441Z,44.00
2019-02-21T10:39:17.457Z,45.30
2019-02-21T10:40:17.476Z,45.60
2019-02-21T10:41:17.493Z,47.70
2019-02-21T10:42:17.536Z,42.90
2019-02-21T10:43:17.631Z,48.50
2019-02-21T10:44:17.547Z,49.60
2019-02-21T10:45:17.569Z,44.60
2019-02-21T10:46:17.588Z,45.00
2019-02-21T10:47:17.605Z,48.30
2019-02-21T10:48:17.624Z,44.30
2019-02-21T10:49:17.640Z,45.90
2019-02-21T10:50:17.659Z,50.30
2019-02-21T10:51:17.675Z,48.40
2019-02-21T10:52:17.700Z,47.10
2019-02-21T10:53:17.715Z,45.10
2019-02-21T10:54:17.731Z,44.30
2019-02-21T10:55:17.748Z,39.40
2019-02-21T10:56:18.170Z,46.90
2019-02-21T10:57:17.786Z,42.00
2019-02-21T10:58:17.807Z,42.00
2019-02-21T10:59:17.827Z,39.40
2019-02-21T11:00:17.844Z,39.90
2019-02-21T11:01:17.868Z,39.50
2019-02-21T11:02:17.879Z,42.60
2019-02-21T11:03:17.903Z,45.80
2019-02-21T11:04:17.916Z,40.80
2019-02-21T11:05:17.932Z,39.90
2019-02-21T11:06:17.953Z,47.00
2019-02-21T11:07:17.972Z,43.30
2019-02-21T11:08:17.988Z,38.50
2019-02-21T11:09:18.017Z,40.10
2019-02-21T11:10:19.188Z,39.10
2019-02-21T11:11:18.051Z,39.80
2019-02-21T11:12:18.064Z,37.40
2019-02-21T11:13:18.083Z,39.10
2019-02-21T11:14:18.102Z,39.00
2019-02-21T11:15:18.118Z,37.10
2019-02-21T11:16:18.292Z,38.50
2019-02-21T11:17:18.162Z,40.50
2019-02-21T11:18:18.318Z,36.90
2019-02-21T11:25:44.626Z,37.80
2019-02-21T11:26:44.650Z,38.10
2019-02-21T11:27:44.664Z,41.50
2019-02-21T11:28:47.177Z,38.10
2019-02-21T11:29:44.709Z,42.50
2019-02-21T11:30:44.719Z,35.80
2019-02-21T11:31:44.737Z,39.10
2019-02-21T11:32:44.759Z,38.30
2019-02-21T11:33:44.779Z,40.60
2019-02-21T11:34:44.800Z,37.10
2019-02-21T11:35:44.818Z,37.00
2019-02-21T11:36:44.840Z,41.40
2019-02-21T11:37:47.122Z,37.20
2019-02-21T11:38:44.873Z,39.90
2019-02-21T11:39:44.892Z,39.10
2019-02-21T11:40:44.913Z,37.40
2019-02-21T11:41:44.935Z,37.70
2019-02-21T11:42:44.954Z,38.90
2019-02-21T11:43:44.967Z,37.30
2019-02-21T11:44:44.993Z,36.90
2019-02-21T11:45:53.477Z,35.20
2019-02-21T11:46:45.023Z,36.50
2019-02-21T11:47:45.068Z,41.90
2019-02-21T11:48:45.067Z,40.20
2019-02-21T11:49:45.081Z,39.40
2019-02-21T11:50:45.107Z,42.90
2019-02-21T11:51:45.123Z,40.00
2019-02-21T11:52:45.137Z,42.30
2019-02-21T11:53:45.155Z,41.50
2019-02-21T11:54:45.179Z,42.20
2019-02-21T11:55:45.192Z,34.20
2019-02-21T11:56:45.216Z,42.80
2019-02-21T11:57:45.230Z,36.10
2019-02-21T11:58:45.249Z,38.00
2019-02-21T11:59:45.265Z,38.90
2019-02-21T12:00:45.286Z,37.10
2019-02-21T12:01:45.309Z,39.70
2019-02-21T12:02:45.321Z,36.60
2019-02-21T12:03:45.340Z,46.00
2019-02-21T12:04:45.359Z,38.60
2019-02-21T12:05:45.378Z,37.90
2019-02-21T12:06:47.703Z,39.40
2019-02-21T12:07:45.419Z,33.60
2019-02-21T12:08:45.439Z,39.10
2019-02-21T12:09:45.455Z,37.00
2019-02-21T12:10:45.475Z,39.70
2019-02-21T12:11:45.500Z,35.70
2019-02-21T12:12:45.513Z,33.60
2019-02-21T12:13:45.536Z,34.70
2019-02-21T12:14:45.556Z,34.40
2019-02-21T12:15:45.573Z,29.90
2019-02-21T12:16:45.590Z,30.40
2019-02-21T12:17:45.613Z,35.30
2019-02-21T12:18:45.629Z,33.70
2019-02-21T12:19:45.645Z,29.90
2019-02-21T12:20:45.666Z,29.70
2019-02-21T12:21:45.689Z,29.30
2019-02-21T12:22:45.705Z,27.70
2019-02-21T12:23:45.722Z,32.40
2019-02-21T12:24:45.747Z,29.50
2019-02-21T12:25:45.761Z,29.20
2019-02-21T12:26:45.781Z,28.20
2019-02-21T12:27:45.802Z,26.50
2019-02-21T12:28:45.827Z,28.50
2019-02-21T12:29:45.841Z,26.90
2019-02-21T12:30:45.860Z,29.40
2019-02-21T12:31:45.876Z,30.10
2019-02-21T12:32:45.898Z,27.00
2019-02-21T12:33:45.931Z,27.10
2019-02-21T12:34:45.936Z,23.20
2019-02-21T12:35:45.958Z,22.20
2019-02-21T12:36:45.976Z,24.20
2019-02-21T12:37:45.994Z,24.70
2019-02-21T12:38:46.015Z,24.70
2019-02-21T12:39:46.036Z,24.90
2019-02-21T12:40:46.054Z,25.60
2019-02-21T12:41:46.082Z,23.70
2019-02-21T12:42:46.089Z,23.50
2019-02-21T12:43:46.159Z,27.60
2019-02-21T12:44:47.843Z,25.90
2019-02-21T12:45:46.154Z,27.60
2019-02-21T12:46:46.170Z,27.60
2019-02-21T12:47:50.942Z,25.40
2019-02-21T12:48:46.210Z,27.10
2019-02-21T12:49:46.232Z,27.60
2019-02-21T12:50:46.247Z,26.00
2019-02-21T12:51:46.265Z,27.20
2019-02-21T12:52:46.285Z,30.30
2019-02-21T12:53:46.313Z,26.40
2019-02-21T12:54:46.323Z,26.70
2019-02-21T12:55:46.344Z,27.10
2019-02-21T12:56:46.361Z,26.00
2019-02-21T12:57:46.390Z,26.40
2019-02-21T12:58:46.401Z,24.90